Time;durP1;ratioP1;P1;durP2;ratioP2;P2;SDS_P1;SDS_P2;PMS_P1;PMS_P2;Temp;Humidity;BMP_temperature;BMP_pressure;BME280_temperature;BME280_humidity;BME280_pressure;Samples;Min_cycle;Max_cycle;Signal;HPM_P1;HPM_P2
2022/07/28 00:01:03;;;;;;;9.18;5.50;;;;;;;25.50;45.73;99632.69;5028300;28;20029;-30
2022/07/28 00:03:29;;;;;;;6.93;5.00;;;;;;;25.59;45.48;99619.75;5026547;28;20037;-28
2022/07/28 00:05:54;;;;;;;8.90;5.45;;;;;;;25.33;45.85;99624.56;5027003;28;20083;-30
2022/07/28 00:08:20;;;;;;;7.57;5.18;;;;;;;25.35;45.89;99625.03;5026437;28;20037;-28
2022/07/28 00:10:45;;;;;;;8.70;5.30;;;;;;;25.25;46.23;99632.47;5028409;28;20478;-29
2022/07/28 00:13:11;;;;;;;7.15;4.78;;;;;;;25.10;46.84;99632.97;5027982;28;20535;-29
2022/07/28 00:15:36;;;;;;;10.32;5.07;;;;;;;25.20;46.12;99621.69;5027552;28;20029;-31
2022/07/28 00:18:02;;;;;;;10.57;5.47;;;;;;;25.17;46.22;99638.75;5027792;28;20126;-28
2022/07/28 00:20:29;;;;;;;9.60;5.22;;;;;;;25.11;46.69;99648.22;5027735;28;20032;-31
2022/07/28 00:22:55;;;;;;;7.32;5.20;;;;;;;25.01;46.65;99637.69;5027705;28;20040;-28
2022/07/28 00:25:20;;;;;;;9.82;5.65;;;;;;;25.10;46.47;99630.25;5027405;28;20037;-34
2022/07/28 00:27:46;;;;;;;6.90;4.78;;;;;;;25.49;45.76;99649.38;5027556;28;20030;-29
2022/07/28 00:30:11;;;;;;;8.13;4.75;;;;;;;25.18;46.28;99655.91;5026123;28;20030;-34
2022/07/28 00:32:37;;;;;;;8.00;5.18;;;;;;;24.90;47.67;99664.47;5028036;28;20041;-30
2022/07/28 00:35:03;;;;;;;9.73;4.93;;;;;;;24.92;47.98;99650.53;5027557;28;20037;-28
2022/07/28 00:37:29;;;;;;;11.13;5.63;;;;;;;25.11;47.19;99650.97;5027061;28;20033;-29
2022/07/28 00:39:54;;;;;;;8.57;5.38;;;;;;;25.41;46.71;99659.19;5027412;28;20477;-28
2022/07/28 00:42:20;;;;;;;7.57;5.43;;;;;;;25.35;47.17;99655.06;5027430;28;20025;-28
2022/07/28 00:44:46;;;;;;;12.98;5.55;;;;;;;24.58;48.81;99649.44;5026068;28;20036;-28
2022/07/28 00:47:12;;;;;;;7.50;5.65;;;;;;;24.97;48.46;99655.81;5025724;28;20486;-27
2022/07/28 00:49:38;;;;;;;10.00;7.10;;;;;;;24.98;48.91;99660.13;5027139;28;20056;-30
2022/07/28 00:52:06;;;;;;;11.70;6.68;;;;;;;24.73;49.21;99640.78;5027070;28;20029;-33
2022/07/28 00:54:32;;;;;;;8.55;6.40;;;;;;;24.80;48.99;99668.34;5026137;28;20022;-28
2022/07/28 00:56:58;;;;;;;9.85;7.07;;;;;;;24.92;48.95;99648.59;5025932;28;20064;-28
2022/07/28 00:59:24;;;;;;;9.10;6.40;;;;;;;24.95;49.24;99674.44;5025666;28;20029;-28
2022/07/28 01:01:50;;;;;;;9.50;6.50;;;;;;;24.47;50.32;99676.22;5027135;28;20044;-30
2022/07/28 01:04:17;;;;;;;7.55;5.97;;;;;;;24.35;50.26;99656.97;5025617;28;20079;-29
2022/07/28 01:06:55;;;;;;;10.52;6.95;;;;;;;24.56;50.40;99685.22;5025408;28;20072;-30
2022/07/28 01:09:38;;;;;;;10.52;6.72;;;;;;;24.94;49.95;99678.28;5026892;28;20403;-33
2022/07/28 01:12:23;;;;;;;10.57;6.50;;;;;;;24.79;50.04;99676.88;5027014;28;20044;-28
2022/07/28 01:14:54;;;;;;;8.40;6.63;;;;;;;24.59;50.36;99673.66;5025451;28;20037;-29
2022/07/28 01:17:41;;;;;;;8.57;6.53;;;;;;;24.77;50.51;99679.91;5026284;28;20096;-33
2022/07/28 01:20:27;;;;;;;11.45;8.10;;;;;;;24.23;51.73;99646.72;5025686;28;20121;-28
2022/07/28 01:23:42;;;;;;;12.02;7.55;;;;;;;24.83;50.74;99677.81;5025483;28;20063;-29
2022/07/28 01:26:26;;;;;;;12.05;7.93;;;;;;;24.49;51.63;99676.69;4997047;28;20115;-28
2022/07/28 01:29:39;;;;;;;10.50;7.80;;;;;;;24.46;51.53;99680.88;5027044;28;20112;-28
2022/07/28 01:32:15;;;;;;;11.52;7.90;;;;;;;24.13;52.47;99686.00;4990051;28;20046;-30
2022/07/28 01:34:56;;;;;;;9.07;7.88;;;;;;;23.78;53.09;99671.50;5025598;28;20467;-32
2022/07/28 01:37:28;;;;;;;12.48;8.05;;;;;;;23.87;53.01;99658.72;5026746;28;20112;-28
2022/07/28 01:39:58;;;;;;;11.38;7.88;;;;;;;23.65;54.77;99675.91;5025402;28;20417;-28
2022/07/28 01:42:31;;;;;;;10.50;8.05;;;;;;;23.41;55.46;99670.88;5027060;28;20030;-28
2022/07/28 01:44:58;;;;;;;11.52;7.70;;;;;;;23.43;55.17;99688.47;5025724;28;20021;-27
2022/07/28 01:47:26;;;;;;;10.20;8.43;;;;;;;23.75;54.47;99689.25;5025265;28;20026;-28
2022/07/28 01:49:54;;;;;;;11.65;7.95;;;;;;;23.84;54.21;99686.56;5025396;28;20555;-27
2022/07/28 01:52:22;;;;;;;12.02;7.95;;;;;;;23.67;54.76;99690.81;5025269;28;20489;-29
2022/07/28 01:54:49;;;;;;;;;;;;;;;23.97;53.75;99693.81;5025761;28;20037;-31
2022/07/28 01:57:15;;;;;;;9.75;8.07;;;;;;;23.73;54.73;99691.47;5025565;28;20301;-34
2022/07/28 01:59:42;;;;;;;12.20;8.35;;;;;;;23.90;53.70;99696.19;5008915;28;20497;-29
2022/07/28 02:02:10;;;;;;;11.35;8.10;;;;;;;24.08;53.36;99685.34;5025412;28;20030;-27
2022/07/28 02:04:39;;;;;;;11.07;8.70;;;;;;;23.81;53.31;99673.59;5025147;28;20025;-30
2022/07/28 02:07:07;;;;;;;12.25;8.57;;;;;;;23.76;54.73;99677.25;5028038;28;20489;-30
2022/07/28 02:09:34;;;;;;;16.45;9.73;;;;;;;23.69;54.46;99684.25;5028716;28;20413;-28
2022/07/28 02:12:01;;;;;;;11.48;9.23;;;;;;;23.59;55.00;99688.06;5028846;28;20029;-29
2022/07/28 02:14:28;;;;;;;12.65;10.75;;;;;;;23.10;57.30;99679.06;5028692;28;20532;-28
2022/07/28 02:17:02;;;;;;;13.57;9.50;;;;;;;23.29;56.70;99676.09;5028604;28;20050;-28
2022/07/28 02:19:29;;;;;;;14.02;10.25;;;;;;;22.95;57.77;99682.94;5028403;28;20414;-31
2022/07/28 02:21:55;;;;;;;13.37;10.83;;;;;;;23.05;58.10;99704.47;5028910;28;20033;-29
2022/07/28 02:24:25;;;;;;;16.15;11.93;;;;;;;23.12;59.11;99710.25;5028890;28;20508;-33
2022/07/28 02:27:06;;;;;;;15.88;12.18;;;;;;;23.19;59.12;99716.06;5028606;28;20060;-31
2022/07/28 02:29:40;;;;;;;18.20;12.38;;;;;;;23.15;60.04;99715.09;5029920;28;20087;-28
2022/07/28 02:32:11;;;;;;;16.85;12.43;;;;;;;22.97;60.57;99718.78;5028821;28;20026;-29
2022/07/28 02:34:38;;;;;;;13.55;10.95;;;;;;;23.11;60.22;99716.00;5028720;28;20026;-31
2022/07/28 02:37:05;;;;;;;17.27;12.40;;;;;;;23.19;59.99;99723.41;5028713;28;20057;-31
2022/07/28 02:39:41;;;;;;;15.30;11.20;;;;;;;23.46;59.78;99725.16;5028357;28;20034;-30
2022/07/28 02:42:13;;;;;;;15.10;11.95;;;;;;;23.20;60.21;99706.00;5028682;28;20037;-28
2022/07/28 02:44:42;;;;;;;14.55;11.35;;;;;;;22.53;63.03;99733.97;5028327;28;20103;-31
2022/07/28 02:47:10;;;;;;;14.00;11.48;;;;;;;22.77;61.34;99715.44;5028520;28;20029;-28
2022/07/28 02:49:37;;;;;;;14.43;11.93;;;;;;;22.76;61.53;99719.28;5028329;28;20042;-30
2022/07/28 02:52:06;;;;;;;15.63;11.93;;;;;;;22.83;61.91;99721.56;5028415;28;20072;-30
2022/07/28 02:54:33;;;;;;;17.52;12.23;;;;;;;22.96;62.40;99739.72;5029696;28;20083;-31
2022/07/28 02:57:01;;;;;;;15.30;12.18;;;;;;;22.94;62.52;99738.44;5028072;28;20825;-28
2022/07/28 02:59:27;;;;;;;16.17;12.00;;;;;;;22.94;62.84;99744.66;5028050;28;20069;-32
2022/07/28 03:01:53;;;;;;;16.63;12.50;;;;;;;22.87;62.24;99722.56;5028048;28;20898;-30
2022/07/28 03:04:55;;;;;;;19.88;11.85;;;;;;;22.97;62.22;99735.09;5011727;28;20080;-28
2022/07/28 03:07:06;;;;;;;24.15;13.10;;;;;;;22.98;62.27;99750.28;5028909;28;20029;-30
2022/07/28 03:09:44;;;;;;;19.45;12.65;;;;;;;23.05;62.32;99745.25;5027683;28;20033;-31
2022/07/28 03:12:11;;;;;;;20.58;12.35;;;;;;;23.12;62.22;99737.47;5029349;28;20048;-28
2022/07/28 03:14:36;;;;;;;15.27;11.60;;;;;;;23.01;61.86;99744.25;5029678;28;20033;-29
2022/07/28 03:17:02;;;;;;;17.90;11.85;;;;;;;23.24;60.93;99734.19;5029212;28;20065;-29
2022/07/28 03:19:28;;;;;;;17.48;12.20;;;;;;;23.21;61.75;99740.22;5029045;28;20026;-29
2022/07/28 03:21:53;;;;;;;15.65;11.73;;;;;;;22.53;63.98;99736.69;5028942;28;20053;-28
2022/07/28 03:24:22;;;;;;;15.68;12.02;;;;;;;22.51;64.30;99744.31;5027827;28;20024;-28
2022/07/28 03:26:56;;;;;;;16.38;11.10;;;;;;;22.33;64.64;99729.78;5027755;28;20045;-28
2022/07/28 03:29:24;;;;;;;15.55;11.80;;;;;;;22.78;62.94;99749.69;5027504;28;20597;-28
2022/07/28 03:31:55;;;;;;;14.02;11.95;;;;;;;22.57;63.55;99733.03;5027145;28;20127;-29
2022/07/28 03:34:22;;;;;;;16.42;11.95;;;;;;;22.49;64.01;99760.13;5028917;28;20036;-30
2022/07/28 03:36:52;;;;;;;16.75;11.32;;;;;;;22.46;63.76;99739.81;5027085;28;20033;-28
2022/07/28 03:39:22;;;;;;;16.35;12.05;;;;;;;22.51;63.85;99745.13;5027091;28;20108;-30
2022/07/28 03:41:49;;;;;;;20.20;13.25;;;;;;;22.49;63.74;99752.78;5027442;28;20030;-30
2022/07/28 03:44:15;;;;;;;18.55;13.35;;;;;;;22.58;62.88;99755.59;5027280;28;20021;-30
2022/07/28 03:46:45;;;;;;;20.20;13.00;;;;;;;22.40;63.68;99770.94;5027428;28;20057;-31
2022/07/28 03:49:10;;;;;;;17.85;13.10;;;;;;;22.20;64.24;99750.41;5027039;28;20080;-28
2022/07/28 03:51:39;;;;;;;16.05;13.00;;;;;;;22.46;63.82;99764.28;5027242;28;20045;-30
2022/07/28 03:54:04;;;;;;;15.48;12.10;;;;;;;22.50;63.66;99770.69;5027156;28;20034;-29
2022/07/28 03:56:30;;;;;;;16.92;12.40;;;;;;;22.52;62.77;99751.38;5028905;28;20021;-28
2022/07/28 03:58:56;;;;;;;16.20;12.63;;;;;;;22.31;64.45;99751.81;5026952;28;20040;-28
2022/07/28 04:01:21;;;;;;;16.67;12.57;;;;;;;22.38;63.80;99752.22;5028348;28;20030;-31
2022/07/28 04:03:47;;;;;;;16.67;11.30;;;;;;;22.55;63.81;99761.63;5028697;28;20032;-30
2022/07/28 04:06:12;;;;;;;19.67;13.68;;;;;;;22.55;64.22;99761.63;5028282;28;20021;-27
2022/07/28 04:08:38;;;;;;;17.38;12.65;;;;;;;22.80;63.68;99780.09;5026900;28;20030;-29
2022/07/28 04:11:03;;;;;;;15.30;13.07;;;;;;;22.84;63.90;99777.53;5028303;28;20405;-31
2022/07/28 04:13:30;;;;;;;15.93;11.60;;;;;;;22.89;63.01;99769.28;5028277;28;20037;-29
2022/07/28 04:15:56;;;;;;;15.68;12.82;;;;;;;23.27;61.99;99783.34;5027630;28;20056;-31
2022/07/28 04:18:22;;;;;;;14.93;12.18;;;;;;;23.01;62.57;99785.03;5026399;28;20122;-30
2022/07/28 04:20:47;;;;;;;18.48;12.75;;;;;;;23.10;61.96;99782.41;5027916;28;20128;-27
2022/07/28 04:23:13;;;;;;;15.38;11.77;;;;;;;23.41;60.88;99777.00;5028028;28;20110;-28
2022/07/28 04:25:38;;;;;;;15.63;10.95;;;;;;;23.49;59.68;99787.13;5027868;28;20102;-29
2022/07/28 04:28:04;;;;;;;15.23;10.93;;;;;;;23.03;61.01;99777.41;5027365;28;20084;-31
2022/07/28 04:30:29;;;;;;;15.57;11.57;;;;;;;23.30;61.10;99787.34;5026557;28;20072;-28
2022/07/28 04:32:55;;;;;;;18.02;10.88;;;;;;;23.20;60.46;99788.38;5027732;28;20030;-30
2022/07/28 04:35:23;;;;;;;16.83;11.45;;;;;;;23.33;60.25;99775.81;5027713;28;20028;-28
2022/07/28 04:37:48;;;;;;;;;;;;;;;23.49;60.16;99795.28;5028150;28;20068;-28
2022/07/28 04:40:14;;;;;;;17.13;10.70;;;;;;;23.51;59.13;99798.50;5027806;28;19945;-28
2022/07/28 04:42:41;;;;;;;12.60;10.32;;;;;;;23.42;58.25;99806.63;5026308;28;20784;-28
2022/07/28 04:45:08;;;;;;;13.95;9.38;;;;;;;23.53;57.72;99806.34;5027615;28;20042;-28
2022/07/28 04:47:34;;;;;;;13.48;9.10;;;;;;;23.54;56.96;99814.22;5025906;28;20520;-31
2022/07/28 04:50:00;;;;;;;15.88;9.25;;;;;;;23.62;56.72;99816.19;5026051;28;20041;-35
2022/07/28 04:52:25;;;;;;;12.05;9.38;;;;;;;23.77;56.88;99806.84;5027736;28;20060;-28
2022/07/28 04:54:52;;;;;;;16.42;9.50;;;;;;;24.03;55.90;99809.66;5025910;28;20894;-29
2022/07/28 04:57:18;;;;;;;13.55;8.65;;;;;;;24.20;54.87;99813.56;5025889;28;20572;-29
2022/07/28 04:59:44;;;;;;;13.10;8.93;;;;;;;24.31;54.41;99803.97;5025899;28;20115;-28
2022/07/28 05:02:11;;;;;;;15.40;10.00;;;;;;;24.63;55.05;99831.97;5027251;28;20175;-32
2022/07/28 05:04:36;;;;;;;13.88;9.05;;;;;;;24.85;54.19;99828.31;5026003;28;20126;-27
2022/07/28 05:07:02;;;;;;;22.17;14.95;;;;;;;25.00;53.10;99825.06;5026013;28;20685;-27
2022/07/28 05:09:28;;;;;;;26.20;16.25;;;;;;;25.15;52.65;99815.63;5025696;28;20072;-29
2022/07/28 05:11:53;;;;;;;27.27;17.50;;;;;;;25.25;53.19;99831.69;5025647;28;20045;-31
2022/07/28 05:14:19;;;;;;;27.10;17.15;;;;;;;25.15;53.24;99820.25;5025734;28;20477;-28
2022/07/28 05:16:44;;;;;;;32.33;19.38;;;;;;;25.20;52.34;99815.44;5026979;28;20068;-28
2022/07/28 05:19:10;;;;;;;27.30;19.38;;;;;;;25.33;51.65;99819.13;5027381;28;20032;-31
2022/07/28 05:21:36;;;;;;;26.27;15.43;;;;;;;25.69;51.11;99833.53;5027157;28;20033;-30
2022/07/28 05:24:01;;;;;;;20.80;12.50;;;;;;;25.82;50.45;99829.78;5027604;28;20029;-28
2022/07/28 05:26:27;;;;;;;14.07;10.77;;;;;;;25.93;49.27;99822.03;5025804;28;20068;-29
2022/07/28 05:28:54;;;;;;;20.45;11.98;;;;;;;26.14;49.04;99819.41;5025787;28;20033;-31
2022/07/28 05:31:19;;;;;;;16.13;10.18;;;;;;;26.15;50.29;99823.72;5025453;28;20037;-28
2022/07/28 05:33:45;;;;;;;15.70;9.60;;;;;;;26.25;51.00;99835.09;5027230;28;20091;-29
2022/07/28 05:36:10;;;;;;;13.35;8.63;;;;;;;26.42;49.27;99841.59;5027242;28;20087;-30
2022/07/28 05:38:36;;;;;;;11.30;6.82;;;;;;;26.39;50.46;99845.78;5025435;28;20065;-31
2022/07/28 05:41:01;;;;;;;9.27;6.35;;;;;;;26.51;49.05;99841.53;5028549;28;20034;-29
2022/07/28 05:43:27;;;;;;;9.18;6.68;;;;;;;26.62;48.97;99821.72;5030478;28;20084;-31
2022/07/28 05:45:52;;;;;;;12.07;5.70;;;;;;;26.62;48.78;99826.38;5030800;28;20029;-28
2022/07/28 05:48:19;;;;;;;9.07;6.50;;;;;;;26.86;49.66;99836.66;5029295;28;20460;-29
2022/07/28 05:50:45;;;;;;;14.52;7.28;;;;;;;27.00;48.13;99833.66;5029481;28;20529;-28
2022/07/28 05:53:11;;;;;;;9.80;7.03;;;;;;;27.12;47.59;99839.19;5029482;28;20394;-34
2022/07/28 05:55:37;;;;;;;16.35;6.50;;;;;;;27.53;47.40;99848.47;5030438;28;20018;-28
2022/07/28 05:58:02;;;;;;;8.23;5.95;;;;;;;27.55;48.13;99851.69;5030503;28;20063;-36
2022/07/28 06:00:28;;;;;;;11.15;7.57;;;;;;;27.67;46.58;99861.09;5030374;28;20498;-28
2022/07/28 06:02:53;;;;;;;12.82;6.03;;;;;;;27.78;46.95;99854.00;5030562;28;20104;-33
2022/07/28 06:05:22;;;;;;;10.35;6.43;;;;;;;28.14;45.87;99860.72;5030105;28;20026;-28
2022/07/28 06:07:50;;;;;;;9.93;5.60;;;;;;;28.04;44.57;99845.50;5030284;28;20022;-32
2022/07/28 06:10:17;;;;;;;9.70;4.72;;;;;;;28.09;43.50;99848.00;5028782;28;20120;-29
2022/07/28 06:12:49;;;;;;;8.40;4.68;;;;;;;28.09;43.57;99858.19;5028699;28;20030;-29
2022/07/28 06:15:16;;;;;;;8.43;4.70;;;;;;;28.32;42.84;99856.59;5028766;28;20049;-33
2022/07/28 06:17:42;;;;;;;11.02;5.18;;;;;;;28.44;42.90;99836.56;5028477;28;20061;-32
2022/07/28 06:20:08;;;;;;;9.80;5.00;;;;;;;28.47;43.64;99841.38;5030291;28;20026;-29
2022/07/28 06:23:00;;;;;;;8.57;5.40;;;;;;;28.75;42.22;99848.91;5028315;28;20037;-32
2022/07/28 06:25:28;;;;;;;15.18;5.18;;;;;;;28.69;43.14;99853.84;5027096;28;20040;-29
2022/07/28 06:27:57;;;;;;;8.75;5.22;;;;;;;29.00;42.72;99852.38;5028656;28;20033;-31
2022/07/28 06:30:23;;;;;;;8.88;4.80;;;;;;;28.77;43.21;99850.16;5028401;28;20037;-28
2022/07/28 06:32:49;;;;;;;7.75;5.03;;;;;;;28.75;41.79;99837.91;5028477;28;20033;-28
2022/07/28 06:35:16;;;;;;;7.47;4.70;;;;;;;29.17;42.53;99862.31;5029897;28;20037;-29
2022/07/28 06:37:47;;;;;;;7.97;4.90;;;;;;;29.29;41.69;99864.22;5028129;28;20037;-31
2022/07/28 06:40:14;;;;;;;6.20;4.50;;;;;;;29.22;40.88;99859.31;5028232;28;20030;-29
2022/07/28 06:42:43;;;;;;;8.38;4.80;;;;;;;29.43;41.36;99867.34;5029634;28;20111;-33
2022/07/28 06:45:09;;;;;;;7.68;5.28;;;;;;;29.48;40.20;99852.56;5028019;28;20123;-32
2022/07/28 06:47:35;;;;;;;7.78;4.75;;;;;;;29.54;40.15;99854.69;5027466;28;20040;-28
2022/07/28 06:50:02;;;;;;;8.55;5.50;;;;;;;29.48;39.29;99849.81;5027976;28;20025;-28
2022/07/28 06:52:27;;;;;;;6.43;5.00;;;;;;;29.55;39.89;99842.56;5027244;28;20033;-31
2022/07/28 06:54:53;;;;;;;11.20;6.00;;;;;;;29.60;40.96;99841.50;5029357;28;20017;-29
2022/07/28 06:57:21;;;;;;;11.05;5.30;;;;;;;29.66;39.73;99851.06;5044201;28;20033;-35
2022/07/28 06:59:48;;;;;;;8.95;5.53;;;;;;;29.88;39.95;99846.97;5027822;28;20036;-28
2022/07/28 07:02:14;;;;;;;7.50;5.65;;;;;;;30.07;39.06;99853.69;5027753;28;20029;-29
2022/07/28 07:04:39;;;;;;;7.75;5.65;;;;;;;30.15;39.32;99860.97;5029167;28;20030;-30
2022/07/28 07:07:05;;;;;;;7.18;5.28;;;;;;;30.11;38.83;99860.88;5028769;28;20038;-29
2022/07/28 07:09:30;;;;;;;8.25;4.40;;;;;;;30.19;39.81;99859.88;5029179;28;20554;-28
2022/07/28 07:11:56;;;;;;;9.75;4.68;;;;;;;30.53;38.07;99843.00;5028906;28;20057;-31
2022/07/28 07:14:22;;;;;;;7.38;5.10;;;;;;;30.43;40.01;99838.84;5027418;28;20542;-30
2022/07/28 07:16:48;;;;;;;6.65;4.68;;;;;;;30.51;38.85;99839.81;5028555;28;20045;-33
2022/07/28 07:19:13;;;;;;;8.23;5.00;;;;;;;30.80;38.09;99853.03;5027400;28;20048;-30
2022/07/28 07:21:39;;;;;;;6.95;4.80;;;;;;;30.58;39.72;99845.47;5027005;28;20513;-31
2022/07/28 07:24:04;;;;;;;9.88;5.10;;;;;;;30.82;38.45;99831.44;5028937;28;20029;-28
2022/07/28 07:26:30;;;;;;;11.07;5.22;;;;;;;31.22;37.62;99840.53;5028637;28;20095;-28
2022/07/28 07:28:55;;;;;;;7.32;5.13;;;;;;;30.96;38.28;99822.72;5027546;28;20033;-29
2022/07/28 07:31:21;;;;;;;9.43;4.95;;;;;;;30.95;37.53;99831.34;5028407;28;20036;-32
2022/07/28 07:33:46;;;;;;;8.77;5.28;;;;;;;30.92;37.79;99829.31;5028765;28;20086;-30
2022/07/28 07:36:12;;;;;;;8.82;5.35;;;;;;;31.16;36.87;99837.28;5028486;28;20037;-29
2022/07/28 07:38:38;;;;;;;9.02;5.05;;;;;;;31.08;37.64;99838.31;5027339;28;20029;-28
2022/07/28 07:41:04;;;;;;;8.63;5.00;;;;;;;31.36;36.35;99834.50;5028357;28;20033;-29
2022/07/28 07:43:29;;;;;;;7.35;4.85;;;;;;;31.43;36.82;99827.16;5028348;28;20080;-29
2022/07/28 07:45:54;;;;;;;7.18;5.00;;;;;;;31.35;36.52;99841.19;5026972;28;20621;-28
2022/07/28 07:48:20;;;;;;;6.15;4.47;;;;;;;31.33;36.62;99835.22;5028082;28;20036;-28
2022/07/28 07:50:45;;;;;;;8.98;5.13;;;;;;;31.25;36.92;99834.28;5026470;28;20034;-31
2022/07/28 07:53:11;;;;;;;9.70;5.95;;;;;;;31.32;37.57;99845.44;5028725;28;20025;-29
2022/07/28 07:55:36;;;;;;;10.30;5.40;;;;;;;31.61;36.44;99846.81;5028496;28;20807;-29
2022/07/28 07:58:02;;;;;;;6.43;4.68;;;;;;;31.64;36.26;99829.53;5027901;28;20033;-28
2022/07/28 08:00:28;;;;;;;12.15;4.82;;;;;;;31.77;35.81;99829.34;5028183;28;20041;-30
2022/07/28 08:02:53;;;;;;;6.57;4.95;;;;;;;31.91;34.62;99842.56;5027075;28;20099;-29
2022/07/28 08:05:19;;;;;;;10.88;5.63;;;;;;;32.05;34.22;99819.97;5027510;28;20032;-28
2022/07/28 08:07:44;;;;;;;6.70;5.43;;;;;;;32.34;35.31;99837.75;5026526;28;20056;-33
2022/07/28 08:10:10;;;;;;;6.95;4.72;;;;;;;32.13;33.84;99832.72;5027728;28;20039;-28
2022/07/28 08:12:36;;;;;;;5.50;4.30;;;;;;;32.08;33.83;99827.50;5027838;28;20108;-29
2022/07/28 08:15:02;;;;;;;6.95;4.63;;;;;;;32.18;34.63;99846.19;5027905;28;20029;-28
2022/07/28 08:17:28;;;;;;;8.20;4.70;;;;;;;32.35;34.83;99831.88;5025812;28;20045;-29
2022/07/28 08:19:54;;;;;;;5.90;4.55;;;;;;;32.29;35.40;99836.13;5026160;28;20048;-32
2022/07/28 08:22:20;;;;;;;7.78;4.93;;;;;;;32.68;34.43;99835.91;5028230;28;20056;-32
2022/07/28 08:24:45;;;;;;;7.75;4.78;;;;;;;33.09;33.71;99846.28;5027790;28;20029;-33
2022/07/28 08:27:11;;;;;;;11.02;4.75;;;;;;;32.98;32.86;99843.38;5027725;28;20017;-29
2022/07/28 08:29:36;;;;;;;6.80;4.65;;;;;;;33.09;32.96;99833.28;5027482;28;20033;-29
2022/07/28 08:32:02;;;;;;;8.65;4.57;;;;;;;32.76;33.26;99843.09;5027681;28;20389;-29
2022/07/28 08:34:29;;;;;;;8.00;4.70;;;;;;;33.01;32.50;99851.69;5027366;28;20108;-29
2022/07/28 08:36:55;;;;;;;9.57;5.40;;;;;;;33.01;33.47;99834.31;5025746;28;20044;-32
2022/07/28 08:39:22;;;;;;;6.68;4.88;;;;;;;33.13;33.07;99850.69;5027332;28;20045;-28
2022/07/28 08:42:17;;;;;;;9.80;5.07;;;;;;;33.10;31.98;99850.63;5025904;28;20693;-28
2022/07/28 08:44:56;;;;;;;6.07;5.13;;;;;;;33.24;33.22;99845.28;5025965;28;20041;-30
2022/07/28 08:47:22;;;;;;;9.10;5.25;;;;;;;33.41;32.54;99847.44;5025717;28;20033;-31
2022/07/28 08:49:50;;;;;;;7.05;4.90;;;;;;;33.33;31.91;99842.22;5025580;28;20045;-29
2022/07/28 08:52:19;;;;;;;14.15;5.60;;;;;;;33.38;31.52;99844.63;5025626;28;20037;-33
2022/07/28 08:54:46;;;;;;;8.77;5.80;;;;;;;33.68;31.76;99849.31;5025649;28;20037;-31
2022/07/28 08:57:29;;;;;;;6.47;4.90;;;;;;;33.67;31.45;99856.00;5025472;28;20037;-29
2022/07/28 08:59:55;;;;;;;7.68;5.60;;;;;;;33.73;31.49;99843.41;5025949;28;20028;-32
2022/07/28 09:02:24;;;;;;;8.90;5.43;;;;;;;34.15;31.00;99854.06;5026048;28;20037;-30
2022/07/28 09:04:50;;;;;;;7.82;5.07;;;;;;;34.17;30.66;99862.00;5025911;28;20041;-28
2022/07/28 09:07:17;;;;;;;10.95;4.80;;;;;;;34.00;31.46;99838.50;5025345;28;20383;-29
2022/07/28 09:09:42;;;;;;;7.95;4.78;;;;;;;34.25;30.89;99860.88;5025554;28;20489;-29
2022/07/28 09:12:08;;;;;;;6.30;4.25;;;;;;;33.99;32.28;99837.72;5025150;28;20041;-28
2022/07/28 09:14:34;;;;;;;8.30;4.32;;;;;;;34.14;31.77;99857.22;5026824;28;20037;-33
2022/07/28 09:17:00;;;;;;;7.55;4.60;;;;;;;34.31;30.04;99847.47;5025136;28;20097;-30
2022/07/28 09:19:27;;;;;;;8.20;4.80;;;;;;;34.00;30.19;99853.13;5026745;28;20509;-33
2022/07/28 09:21:55;;;;;;;9.13;4.97;;;;;;;34.17;30.79;99839.84;5025478;28;20033;-34
2022/07/28 09:24:38;;;;;;;6.25;4.22;;;;;;;34.54;30.32;99853.53;5025045;28;20836;-29
2022/07/28 09:27:06;;;;;;;5.60;3.95;;;;;;;34.34;29.87;99850.22;5025260;28;20030;-29
2022/07/28 09:29:33;;;;;;;8.48;4.03;;;;;;;34.16;30.64;99841.84;5025095;28;20421;-28
2022/07/28 09:31:59;;;;;;;6.18;4.22;;;;;;;34.33;30.45;99840.34;5025434;28;20033;-29
2022/07/28 09:34:25;;;;;;;6.68;4.05;;;;;;;34.52;29.85;99844.03;5026636;28;20037;-30
2022/07/28 09:36:51;;;;;;;7.25;4.45;;;;;;;34.81;29.24;99842.22;5026613;28;20033;-36
2022/07/28 09:39:30;;;;;;;7.20;4.57;;;;;;;34.90;28.60;99845.44;5026305;28;20034;-35
2022/07/28 09:41:56;;;;;;;9.13;4.88;;;;;;;34.89;29.67;99845.81;5025356;28;20034;-29
2022/07/28 09:44:23;;;;;;;16.15;7.28;;;;;;;35.09;28.25;99849.84;5026617;28;20090;-34
2022/07/28 09:46:49;;;;;;;9.95;4.90;;;;;;;35.32;27.28;99852.31;5025345;28;20026;-31
2022/07/28 09:49:15;;;;;;;7.03;4.30;;;;;;;35.16;27.25;99844.34;5024866;28;20033;-31
2022/07/28 09:51:41;;;;;;;6.80;4.78;;;;;;;35.63;28.13;99843.66;5024702;28;20041;-32
2022/07/28 09:54:16;;;;;;;6.78;4.65;;;;;;;35.70;27.59;99838.16;5025244;28;20124;-30
2022/07/28 09:56:43;;;;;;;7.43;4.53;;;;;;;35.46;27.04;99840.47;5025179;28;20118;-32
2022/07/28 09:59:10;;;;;;;8.43;4.55;;;;;;;35.28;27.32;99836.84;5024327;28;20029;-29
2022/07/28 10:01:56;;;;;;;6.57;4.68;;;;;;;35.31;26.23;99839.66;5024876;28;20021;-30
2022/07/28 10:04:33;;;;;;;6.53;4.45;;;;;;;35.69;27.93;99834.56;5025148;28;20045;-31
2022/07/28 10:07:13;;;;;;;9.07;4.95;;;;;;;35.87;27.18;99836.56;5023819;28;20099;-28
2022/07/28 10:09:39;;;;;;;6.95;4.68;;;;;;;35.75;27.34;99823.88;5020980;28;20038;-31
2022/07/28 10:12:23;;;;;;;5.80;4.20;;;;;;;35.98;26.42;99827.03;5023695;28;20247;-33
2022/07/28 10:14:50;;;;;;;5.68;4.57;;;;;;;35.48;27.13;99831.75;5023815;28;20064;-28
2022/07/28 10:17:27;;;;;;;7.78;5.30;;;;;;;35.74;26.50;99827.84;5023404;28;20499;-29
2022/07/28 10:19:56;;;;;;;6.78;4.28;;;;;;;35.68;28.27;99824.66;5022886;28;20026;-32
2022/07/28 10:22:25;;;;;;;7.10;4.32;;;;;;;35.84;26.78;99832.59;5023755;28;20034;-30
2022/07/28 10:24:52;;;;;;;6.10;4.40;;;;;;;35.83;26.02;99808.81;5040023;28;20061;-31
2022/07/28 10:27:23;;;;;;;6.78;4.72;;;;;;;36.10;26.51;99816.72;5025473;28;20067;-39
2022/07/28 10:30:02;;;;;;;7.68;4.95;;;;;;;36.37;26.21;99809.56;5027255;28;20025;-30
2022/07/28 10:32:37;;;;;;;9.45;4.47;;;;;;;36.03;26.19;99805.63;5027293;28;20056;-30
2022/07/28 10:35:10;;;;;;;8.75;5.03;;;;;;;36.25;26.66;99806.38;5027368;28;20854;-28
2022/07/28 10:37:57;;;;;;;6.07;4.53;;;;;;;36.53;26.24;99806.31;5024608;28;20029;-31
2022/07/28 10:40:26;;;;;;;6.30;3.95;;;;;;;36.72;26.63;99795.94;5026456;28;20079;-31
2022/07/28 10:42:52;;;;;;;7.00;4.60;;;;;;;36.51;26.14;99796.81;5010734;28;20052;-29
2022/07/28 10:45:18;;;;;;;7.57;4.38;;;;;;;36.83;24.73;99790.38;5026630;28;20033;-34
2022/07/28 10:47:45;;;;;;;5.80;4.45;;;;;;;36.92;26.60;99782.34;5028228;28;20024;-28
2022/07/28 10:50:10;;;;;;;6.90;4.68;;;;;;;37.08;25.85;99785.44;5026671;28;20088;-31
2022/07/28 10:52:39;;;;;;;6.80;4.50;;;;;;;36.95;25.78;99793.47;5028307;28;20030;-29
2022/07/28 10:55:37;;;;;;;6.90;4.53;;;;;;;37.69;25.21;99782.28;5026332;28;20465;-33
2022/07/28 10:58:12;;;;;;;8.23;4.75;;;;;;;37.56;24.79;99786.75;5026822;28;20408;-33
2022/07/28 11:00:55;;;;;;;6.30;4.97;;;;;;;37.21;25.47;99766.34;5026394;28;20069;-32
2022/07/28 11:03:38;;;;;;;6.07;4.75;;;;;;;37.35;24.99;99771.81;5026732;28;20037;-28
2022/07/28 11:06:26;;;;;;;7.68;5.05;;;;;;;37.60;24.33;99781.97;5026902;28;20025;-34
2022/07/28 11:08:55;;;;;;;8.63;5.50;;;;;;;37.24;23.61;99778.63;5026445;28;20036;-30
2022/07/28 11:11:53;;;;;;;9.93;5.50;;;;;;;37.12;24.47;99775.13;5026486;28;20033;-31
2022/07/28 11:14:21;;;;;;;7.57;5.05;;;;;;;37.46;24.24;99754.25;5028594;28;20500;-33
2022/07/28 11:17:07;;;;;;;7.00;4.80;;;;;;;37.15;24.59;99767.97;5029009;28;20958;-30
2022/07/28 11:19:42;;;;;;;6.30;5.10;;;;;;;37.30;24.63;99774.22;5027315;28;20053;-35
2022/07/28 11:22:17;;;;;;;8.00;4.88;;;;;;;37.59;24.25;99763.69;5027665;28;20040;-29
2022/07/28 11:24:59;;;;;;;7.60;4.88;;;;;;;37.95;23.19;99760.56;5033920;28;20037;-30
2022/07/28 11:27:40;;;;;;;7.82;4.70;;;;;;;38.09;24.74;99746.53;5036369;28;20575;-30
2022/07/28 11:30:11;;;;;;;7.68;4.97;;;;;;;37.95;23.70;99764.13;5040738;28;20037;-31
2022/07/28 11:32:48;;;;;;;6.57;4.95;;;;;;;37.89;23.92;99759.44;5039280;28;20029;-29
2022/07/28 11:35:14;;;;;;;8.35;5.25;;;;;;;37.50;24.27;99738.31;5039340;28;20498;-33
2022/07/28 11:38:01;;;;;;;6.57;4.53;;;;;;;38.10;25.03;99750.09;5043152;28;20108;-31